createdAt,value
2023-02-23T00:00:45.268Z,9.68
2023-02-23T00:01:45.266Z,9.72
2023-02-23T00:02:45.361Z,9.69
2023-02-23T00:03:45.360Z,9.69
2023-02-23T00:04:45.250Z,9.58
2023-02-23T00:05:45.243Z,9.69
2023-02-23T00:06:45.418Z,9.59
2023-02-23T00:07:45.252Z,9.65
2023-02-23T00:08:45.235Z,9.69
2023-02-23T00:09:45.228Z,9.69
2023-02-23T00:10:45.225Z,9.69
2023-02-23T00:11:45.226Z,9.65
2023-02-23T00:12:45.223Z,9.69
2023-02-23T00:13:45.215Z,9.68
2023-02-23T00:14:45.230Z,9.69
2023-02-23T00:15:45.206Z,9.59
2023-02-23T00:16:45.247Z,9.66
2023-02-23T00:17:45.198Z,9.69
2023-02-23T00:18:45.298Z,9.69
2023-02-23T00:19:45.195Z,9.59
2023-02-23T00:20:45.188Z,9.58
2023-02-23T00:21:45.181Z,9.55
2023-02-23T00:22:45.180Z,9.55
2023-02-23T00:23:45.179Z,9.50
2023-02-23T00:24:45.172Z,9.46
2023-02-23T00:25:45.168Z,9.50
2023-02-23T00:26:45.165Z,9.50
2023-02-23T00:27:45.160Z,9.43
2023-02-23T00:28:45.165Z,9.46
2023-02-23T00:29:45.156Z,9.37
2023-02-23T00:30:45.217Z,9.41
2023-02-23T00:31:45.264Z,9.37
2023-02-23T00:32:45.205Z,9.36
2023-02-23T00:33:45.145Z,9.39
2023-02-23T00:34:45.144Z,9.39
2023-02-23T00:35:45.136Z,9.34
2023-02-23T00:36:45.136Z,9.31
2023-02-23T00:37:45.132Z,9.36
2023-02-23T00:38:45.130Z,9.31
2023-02-23T00:39:45.125Z,9.32
2023-02-23T00:40:45.123Z,9.32
2023-02-23T00:41:45.112Z,9.36
2023-02-23T00:42:45.114Z,9.31
2023-02-23T00:43:45.112Z,9.40
2023-02-23T00:44:45.104Z,9.39
2023-02-23T00:45:45.124Z,9.32
2023-02-23T00:46:45.119Z,9.44
2023-02-23T00:47:45.089Z,9.44
2023-02-23T00:48:45.094Z,9.43
2023-02-23T00:49:45.156Z,9.47
2023-02-23T00:50:45.081Z,9.50
2023-02-23T00:51:45.077Z,9.46
2023-02-23T00:52:45.186Z,9.54
2023-02-23T00:53:45.074Z,9.62
2023-02-23T00:54:45.067Z,9.56
2023-02-23T00:55:45.073Z,9.56
2023-02-23T00:56:45.063Z,9.51
2023-02-23T00:57:45.070Z,9.56
2023-02-23T00:58:45.051Z,9.58
2023-02-23T00:59:45.052Z,9.58
2023-02-23T01:00:45.046Z,9.58
2023-02-23T01:01:45.206Z,9.62
2023-02-23T01:02:45.100Z,9.59
2023-02-23T01:03:45.034Z,9.62
2023-02-23T01:04:45.027Z,9.58
2023-02-23T01:05:45.024Z,9.54
2023-02-23T01:06:45.018Z,9.66
2023-02-23T01:07:45.024Z,9.59
2023-02-23T01:08:45.025Z,9.58
2023-02-23T01:09:45.007Z,9.64
2023-02-23T01:10:44.998Z,9.54
2023-02-23T01:11:44.996Z,9.55
2023-02-23T01:12:44.990Z,9.58
2023-02-23T01:13:44.992Z,9.47
2023-02-23T01:14:44.984Z,9.43
2023-02-23T01:15:44.997Z,9.47
2023-02-23T01:16:44.980Z,9.46
2023-02-23T01:17:44.977Z,9.46
2023-02-23T01:18:45.047Z,9.43
2023-02-23T01:19:44.974Z,9.39
2023-02-23T01:20:44.964Z,9.41
2023-02-23T01:21:44.960Z,9.40
2023-02-23T01:22:44.953Z,9.29
2023-02-23T01:23:44.953Z,9.36
2023-02-23T01:24:44.940Z,9.37
2023-02-23T01:25:44.942Z,9.39
2023-02-23T01:26:44.946Z,9.37
2023-02-23T01:27:44.930Z,9.46
2023-02-23T01:28:44.925Z,9.47
2023-02-23T01:29:44.930Z,9.48
2023-02-23T01:30:44.981Z,9.46
2023-02-23T01:31:45.088Z,9.47
2023-02-23T01:32:44.924Z,9.43
2023-02-23T01:33:44.911Z,9.54
2023-02-23T01:34:44.919Z,9.55
2023-02-23T01:35:44.904Z,9.48
2023-02-23T01:36:44.915Z,9.61
2023-02-23T01:37:44.895Z,9.56
2023-02-23T01:38:44.889Z,9.56
2023-02-23T01:39:44.891Z,9.56
2023-02-23T01:40:44.887Z,9.55
2023-02-23T01:41:44.889Z,9.65
2023-02-23T01:42:44.883Z,9.58
2023-02-23T01:43:44.870Z,9.55
2023-02-23T01:44:44.873Z,9.61
2023-02-23T01:45:44.868Z,9.55
2023-02-23T01:46:44.860Z,9.51
2023-02-23T01:47:44.898Z,9.56
2023-02-23T01:48:44.850Z,9.51
2023-02-23T01:49:44.848Z,9.41
2023-02-23T01:50:44.862Z,9.41
2023-02-23T01:51:44.847Z,9.44
2023-02-23T01:52:44.835Z,9.40
2023-02-23T01:53:44.838Z,9.44
2023-02-23T01:54:44.826Z,9.46
2023-02-23T01:55:44.824Z,9.41
2023-02-23T01:56:44.827Z,9.39
2023-02-23T01:57:44.818Z,9.47
2023-02-23T01:58:44.812Z,9.44
2023-02-23T01:59:44.821Z,9.44
2023-02-23T02:00:47.422Z,9.47
2023-02-23T02:01:44.879Z,9.40
2023-02-23T02:02:44.797Z,9.41
2023-02-23T02:03:44.797Z,9.46
2023-02-23T02:04:45.105Z,9.47
2023-02-23T02:05:44.785Z,9.43
2023-02-23T02:06:44.933Z,9.43
2023-02-23T02:07:44.778Z,9.44
2023-02-23T02:08:44.773Z,9.46
2023-02-23T02:09:44.772Z,9.43
2023-02-23T02:10:44.771Z,9.51
2023-02-23T02:11:44.769Z,9.50
2023-02-23T02:12:44.758Z,9.48
2023-02-23T02:13:44.756Z,9.47
2023-02-23T02:14:44.751Z,9.51
2023-02-23T02:15:44.749Z,9.50
2023-02-23T02:16:44.746Z,9.46
2023-02-23T02:17:44.743Z,9.44
2023-02-23T02:18:44.736Z,9.44
2023-02-23T02:19:44.733Z,9.40
2023-02-23T02:20:44.726Z,9.48
2023-02-23T02:21:44.728Z,9.51
2023-02-23T02:22:44.740Z,9.56
2023-02-23T02:23:44.721Z,9.51
2023-02-23T02:24:44.774Z,9.51
2023-02-23T02:25:44.714Z,9.48
2023-02-23T02:26:44.707Z,9.55
2023-02-23T02:27:44.703Z,9.51
2023-02-23T02:28:44.702Z,9.50
2023-02-23T02:29:44.697Z,9.56
2023-02-23T02:30:44.765Z,9.56
2023-02-23T02:31:44.768Z,9.54
2023-02-23T02:32:44.682Z,9.56
2023-02-23T02:33:44.679Z,9.51
2023-02-23T02:34:44.675Z,9.47
2023-02-23T02:35:44.672Z,9.50
2023-02-23T02:36:44.666Z,9.54
2023-02-23T02:37:44.664Z,9.48
2023-02-23T02:38:44.711Z,9.58
2023-02-23T02:39:44.658Z,9.55
2023-02-23T02:40:44.651Z,9.50
2023-02-23T02:41:44.659Z,9.61
2023-02-23T02:42:44.643Z,9.51
2023-02-23T02:43:44.648Z,9.54
2023-02-23T02:44:44.633Z,9.50
2023-02-23T02:45:44.644Z,9.51
2023-02-23T02:46:44.630Z,9.50
2023-02-23T02:47:44.627Z,9.47
2023-02-23T02:48:44.620Z,9.47
2023-02-23T02:49:44.624Z,9.46
2023-02-23T02:50:44.616Z,9.56
2023-02-23T02:51:44.616Z,9.51
2023-02-23T02:52:44.610Z,9.47
2023-02-23T02:53:44.608Z,9.51
2023-02-23T02:54:44.648Z,9.51
2023-02-23T02:55:44.597Z,9.55
2023-02-23T02:56:44.596Z,9.55
2023-02-23T02:57:44.594Z,9.54
2023-02-23T02:58:44.587Z,9.48
2023-02-23T02:59:44.584Z,9.47
2023-02-23T03:00:44.580Z,9.47
2023-02-23T03:01:44.639Z,9.54
2023-02-23T03:02:44.571Z,9.51
2023-02-23T03:03:44.570Z,9.50
2023-02-23T03:04:44.691Z,9.55
2023-02-23T03:05:44.562Z,9.59
2023-02-23T03:06:44.563Z,9.47
2023-02-23T03:07:44.555Z,9.61
2023-02-23T03:08:44.554Z,9.46
2023-02-23T03:09:44.626Z,9.48
2023-02-23T03:10:44.557Z,9.43
2023-02-23T03:11:44.540Z,9.48
2023-02-23T03:12:44.531Z,9.41
2023-02-23T03:13:44.534Z,9.46
2023-02-23T03:14:44.526Z,9.56
2023-02-23T03:15:44.549Z,9.48
2023-02-23T03:16:44.520Z,9.54
2023-02-23T03:17:44.517Z,9.47
2023-02-23T03:18:44.516Z,9.40
2023-02-23T03:19:44.508Z,9.46
2023-02-23T03:20:44.509Z,9.48
2023-02-23T03:21:44.505Z,9.56
2023-02-23T03:22:44.497Z,9.54
2023-02-23T03:23:44.491Z,9.48
2023-02-23T03:24:44.502Z,9.50
2023-02-23T03:25:44.486Z,9.51
2023-02-23T03:26:44.541Z,9.40
2023-02-23T03:27:44.476Z,9.43
2023-02-23T03:28:44.474Z,9.56
2023-02-23T03:29:44.471Z,9.44
2023-02-23T03:30:44.514Z,9.55
2023-02-23T03:31:44.602Z,9.50
2023-02-23T03:32:44.460Z,9.55
2023-02-23T03:33:44.466Z,9.48
2023-02-23T03:34:44.460Z,9.44
2023-02-23T03:35:44.458Z,9.47
2023-02-23T03:36:44.641Z,9.44
2023-02-23T03:37:44.443Z,9.55
2023-02-23T03:38:44.437Z,9.54
2023-02-23T03:39:44.434Z,9.46
2023-02-23T03:40:44.437Z,9.48
2023-02-23T03:41:44.425Z,9.54
2023-02-23T03:42:44.437Z,9.50
2023-02-23T03:43:44.419Z,9.48
2023-02-23T03:44:44.422Z,9.47
2023-02-23T03:45:44.473Z,9.54
2023-02-23T03:46:44.416Z,9.54
2023-02-23T03:47:44.402Z,9.48
2023-02-23T03:48:44.407Z,9.55
2023-02-23T03:49:44.392Z,9.54
2023-02-23T03:50:44.389Z,9.40
2023-02-23T03:51:44.384Z,9.47
2023-02-23T03:52:44.378Z,9.44
2023-02-23T03:53:44.375Z,9.40
2023-02-23T03:54:44.371Z,9.55
2023-02-23T03:55:44.366Z,9.54
2023-02-23T03:56:44.377Z,9.54
2023-02-23T03:57:44.361Z,9.46
2023-02-23T03:58:44.386Z,9.51
2023-02-23T03:59:44.355Z,9.56
2023-02-23T04:00:44.358Z,9.39
2023-02-23T04:01:44.386Z,9.44
2023-02-23T04:02:44.338Z,9.44
2023-02-23T04:03:44.371Z,9.44
2023-02-23T04:04:44.332Z,9.47
2023-02-23T04:05:44.326Z,9.46
2023-02-23T04:06:44.327Z,9.41
2023-02-23T04:07:44.321Z,9.43
2023-02-23T04:08:44.333Z,9.37
2023-02-23T04:09:44.313Z,9.37
2023-02-23T04:10:44.303Z,9.29
2023-02-23T04:11:44.304Z,9.31
2023-02-23T04:12:44.297Z,9.31
2023-02-23T04:13:44.296Z,9.34
2023-02-23T04:14:44.306Z,9.32
2023-02-23T04:15:44.286Z,9.32
2023-02-23T04:16:44.337Z,9.36
2023-02-23T04:17:44.282Z,9.31
2023-02-23T04:18:44.283Z,9.25
2023-02-23T04:19:44.291Z,9.34
2023-02-23T04:20:44.308Z,9.28
2023-02-23T04:21:44.272Z,9.32
2023-02-23T04:22:44.267Z,9.32
2023-02-23T04:23:44.266Z,9.26
2023-02-23T04:24:44.251Z,9.32
2023-02-23T04:25:44.253Z,9.29
2023-02-23T04:26:44.244Z,9.34
2023-02-23T04:27:44.247Z,9.36
2023-02-23T04:28:44.233Z,9.36
2023-02-23T04:29:44.231Z,9.36
2023-02-23T04:30:44.289Z,9.39
2023-02-23T04:31:44.380Z,9.28
2023-02-23T04:32:44.369Z,9.29
2023-02-23T04:33:44.217Z,9.34
2023-02-23T04:34:44.214Z,9.32
2023-02-23T04:35:44.209Z,9.31
2023-02-23T04:36:44.457Z,9.32
2023-02-23T04:37:44.204Z,9.31
2023-02-23T04:38:44.198Z,9.31
2023-02-23T04:39:44.196Z,9.32
2023-02-23T04:40:44.189Z,9.32
2023-02-23T04:41:44.186Z,9.36
2023-02-23T04:42:44.182Z,9.34
2023-02-23T04:43:44.178Z,9.34
2023-02-23T04:44:44.175Z,9.34
2023-02-23T04:45:44.260Z,9.36
2023-02-23T04:46:44.185Z,9.31
2023-02-23T04:47:44.181Z,9.39
2023-02-23T04:48:44.158Z,9.32
2023-02-23T04:49:44.154Z,9.31
2023-02-23T04:50:44.148Z,9.29
2023-02-23T04:51:44.149Z,9.31
2023-02-23T04:52:44.146Z,9.31
2023-02-23T04:53:44.142Z,9.32
2023-02-23T04:54:44.137Z,9.31
2023-02-23T04:55:45.526Z,9.36
2023-02-23T04:56:44.128Z,9.34
2023-02-23T04:57:44.124Z,9.36
2023-02-23T04:58:44.126Z,9.36
2023-02-23T04:59:44.125Z,9.29
2023-02-23T05:00:44.112Z,9.29
2023-02-23T05:01:44.139Z,9.29
2023-02-23T05:02:44.124Z,9.26
2023-02-23T05:03:44.100Z,9.28
2023-02-23T05:04:44.116Z,9.25
2023-02-23T05:05:44.094Z,9.22
2023-02-23T05:06:44.091Z,9.23
2023-02-23T05:07:44.095Z,9.21
2023-02-23T05:08:44.082Z,9.26
2023-02-23T05:09:44.083Z,9.19
2023-02-23T05:10:44.082Z,9.21
2023-02-23T05:11:44.071Z,9.19
2023-02-23T05:12:44.093Z,9.16
2023-02-23T05:13:44.061Z,9.18
2023-02-23T05:14:44.056Z,9.23
2023-02-23T05:15:44.065Z,9.19
2023-02-23T05:16:44.053Z,9.22
2023-02-23T05:17:44.047Z,9.22
2023-02-23T05:18:44.064Z,9.14
2023-02-23T05:19:44.045Z,9.16
2023-02-23T05:20:44.034Z,9.14
2023-02-23T05:21:44.030Z,9.19
2023-02-23T05:22:44.035Z,9.23
2023-02-23T05:23:44.028Z,9.22
2023-02-23T05:24:44.025Z,9.23
2023-02-23T05:25:44.019Z,9.18
2023-02-23T05:26:44.016Z,9.22
2023-02-23T05:27:44.006Z,9.23
2023-02-23T05:28:44.004Z,9.18
2023-02-23T05:29:43.999Z,9.19
2023-02-23T05:30:44.084Z,9.19
2023-02-23T05:31:44.102Z,9.23
2023-02-23T05:32:43.993Z,9.21
2023-02-23T05:33:43.991Z,9.19
2023-02-23T05:34:44.004Z,9.22
2023-02-23T05:35:43.974Z,9.11
2023-02-23T05:36:43.972Z,9.18
2023-02-23T05:37:43.971Z,9.18
2023-02-23T05:38:43.966Z,9.18
2023-02-23T05:39:43.986Z,9.16
2023-02-23T05:40:43.958Z,9.18
2023-02-23T05:41:43.947Z,9.18
2023-02-23T05:42:43.944Z,9.19
2023-02-23T05:43:43.942Z,9.21
2023-02-23T05:44:43.938Z,9.22
2023-02-23T05:45:43.929Z,9.18
2023-02-23T05:46:43.930Z,9.16
2023-02-23T05:47:43.929Z,9.16
2023-02-23T05:48:43.923Z,9.21
2023-02-23T05:49:43.914Z,9.14
2023-02-23T05:50:44.029Z,9.13
2023-02-23T05:51:43.905Z,9.18
2023-02-23T05:52:43.905Z,9.21
2023-02-23T05:53:43.909Z,9.16
2023-02-23T05:54:43.894Z,9.19
2023-02-23T05:55:43.907Z,9.23
2023-02-23T05:56:43.888Z,9.21
2023-02-23T05:57:43.904Z,9.22
2023-02-23T05:58:43.880Z,9.23
2023-02-23T05:59:43.875Z,9.18
2023-02-23T06:00:43.877Z,9.25
2023-02-23T06:01:43.871Z,9.26
2023-02-23T06:02:43.898Z,9.25
2023-02-23T06:03:43.883Z,9.19
2023-02-23T06:04:43.859Z,9.22
2023-02-23T06:05:43.861Z,9.19
2023-02-23T06:06:43.880Z,9.21
2023-02-23T06:07:43.849Z,9.19
2023-02-23T06:08:43.845Z,9.21
2023-02-23T06:09:44.672Z,9.21
2023-02-23T06:10:43.836Z,9.18
2023-02-23T06:11:43.833Z,9.11
2023-02-23T06:12:43.830Z,9.14
2023-02-23T06:13:43.824Z,9.06
2023-02-23T06:14:43.820Z,9.10
2023-02-23T06:15:43.933Z,9.19
2023-02-23T06:16:43.876Z,9.08
2023-02-23T06:17:43.810Z,9.11
2023-02-23T06:18:43.804Z,9.19
2023-02-23T06:19:43.796Z,9.08
2023-02-23T06:20:43.795Z,9.10
2023-02-23T06:21:43.789Z,9.11
2023-02-23T06:22:43.812Z,9.06
2023-02-23T06:23:43.785Z,9.08
2023-02-23T06:24:43.781Z,9.11
2023-02-23T06:25:43.780Z,9.04
2023-02-23T06:26:44.572Z,9.16
2023-02-23T06:27:43.766Z,9.06
2023-02-23T06:28:43.771Z,9.06
2023-02-23T06:29:43.761Z,9.16
2023-02-23T06:30:43.782Z,9.10
2023-02-23T06:31:43.829Z,9.06
2023-02-23T06:32:43.745Z,9.10
2023-02-23T06:33:43.744Z,9.16
2023-02-23T06:34:43.754Z,9.11
2023-02-23T06:35:43.735Z,9.16
2023-02-23T06:36:43.735Z,9.21
2023-02-23T06:37:43.730Z,9.19
2023-02-23T06:38:43.748Z,9.18
2023-02-23T06:39:43.716Z,9.19
2023-02-23T06:40:43.729Z,9.16
2023-02-23T06:41:43.708Z,9.19
2023-02-23T06:42:43.709Z,9.14
2023-02-23T06:43:43.704Z,9.14
2023-02-23T06:44:43.699Z,9.18
2023-02-23T06:45:43.695Z,9.11
2023-02-23T06:46:43.750Z,9.19
2023-02-23T06:47:43.699Z,9.16
2023-02-23T06:48:43.696Z,9.16
2023-02-23T06:49:43.679Z,9.19
2023-02-23T06:50:43.673Z,9.16
2023-02-23T06:51:43.668Z,9.13
2023-02-23T06:52:43.667Z,9.19
2023-02-23T06:53:43.659Z,9.10
2023-02-23T06:54:43.681Z,9.13
2023-02-23T06:55:43.653Z,9.18
2023-02-23T06:56:43.652Z,9.19
2023-02-23T06:57:43.646Z,9.11
2023-02-23T06:58:43.641Z,9.16
2023-02-23T06:59:43.641Z,9.18
2023-02-23T07:00:43.647Z,9.16
2023-02-23T07:01:43.674Z,9.21
2023-02-23T07:02:43.624Z,9.21
2023-02-23T07:03:43.637Z,9.21
2023-02-23T07:04:43.616Z,9.18
2023-02-23T07:05:43.792Z,9.16
2023-02-23T07:06:43.611Z,9.21
2023-02-23T07:07:43.611Z,9.13
2023-02-23T07:08:43.604Z,9.18
2023-02-23T07:09:43.594Z,9.21
2023-02-23T07:10:43.613Z,9.18
2023-02-23T07:11:43.597Z,9.18
2023-02-23T07:12:43.585Z,9.18
2023-02-23T07:13:43.578Z,9.16
2023-02-23T07:14:43.575Z,9.16
2023-02-23T07:15:43.570Z,9.11
2023-02-23T07:16:43.564Z,9.19
2023-02-23T07:17:43.559Z,9.25
2023-02-23T07:18:43.559Z,9.18
2023-02-23T07:19:43.549Z,9.23
2023-02-23T07:20:43.551Z,9.23
2023-02-23T07:21:43.546Z,9.21
2023-02-23T07:22:43.539Z,9.22
2023-02-23T07:23:43.533Z,9.18
2023-02-23T07:24:43.540Z,9.22
2023-02-23T07:25:43.531Z,9.25
2023-02-23T07:26:43.681Z,9.18
2023-02-23T07:27:43.518Z,9.21
2023-02-23T07:28:43.516Z,9.28
2023-02-23T07:29:43.527Z,9.23
2023-02-23T07:30:43.528Z,9.22
2023-02-23T07:31:43.637Z,9.18
2023-02-23T07:32:43.550Z,9.21
2023-02-23T07:33:43.497Z,9.21
2023-02-23T07:34:43.489Z,9.25
2023-02-23T07:35:43.489Z,9.21
2023-02-23T07:36:43.481Z,9.21
2023-02-23T07:37:43.481Z,9.21
2023-02-23T07:38:43.477Z,9.25
2023-02-23T07:39:43.472Z,9.23
2023-02-23T07:40:43.474Z,9.19
2023-02-23T07:41:43.817Z,9.21
2023-02-23T07:42:43.488Z,9.06
2023-02-23T07:43:43.467Z,9.06
2023-02-23T07:44:43.456Z,9.14
2023-02-23T07:45:45.596Z,9.10
2023-02-23T07:46:43.453Z,9.04
2023-02-23T07:47:43.443Z,9.06
2023-02-23T07:48:43.439Z,8.99
2023-02-23T07:49:43.433Z,8.99
2023-02-23T07:50:43.440Z,8.97
2023-02-23T07:51:43.430Z,8.95
2023-02-23T07:52:43.426Z,9.06
2023-02-23T07:53:43.422Z,8.99
2023-02-23T07:54:43.417Z,8.99
2023-02-23T07:55:43.423Z,8.95
2023-02-23T07:56:43.414Z,8.91
2023-02-23T07:57:43.403Z,8.89
2023-02-23T07:58:43.480Z,8.95
2023-02-23T07:59:43.404Z,8.89
2023-02-23T08:00:43.396Z,8.92
2023-02-23T08:01:43.389Z,8.95
2023-02-23T08:02:43.399Z,8.94
2023-02-23T08:03:43.383Z,9.04
2023-02-23T08:04:43.380Z,8.99
2023-02-23T08:05:43.375Z,9.00
2023-02-23T08:06:43.376Z,9.11
2023-02-23T08:07:43.366Z,9.10
2023-02-23T08:08:43.369Z,9.13
2023-02-23T08:09:43.367Z,9.11
2023-02-23T08:10:43.355Z,9.11
2023-02-23T08:11:43.346Z,9.10
2023-02-23T08:12:43.434Z,9.11
2023-02-23T08:13:43.355Z,9.21
2023-02-23T08:14:43.364Z,9.18
2023-02-23T08:15:43.331Z,9.21
2023-02-23T08:16:43.396Z,9.22
2023-02-23T08:17:43.321Z,9.16
2023-02-23T08:18:43.383Z,9.18
2023-02-23T08:19:43.315Z,9.22
2023-02-23T08:20:43.311Z,9.21
2023-02-23T08:21:43.304Z,9.26
2023-02-23T08:22:49.805Z,9.21
2023-02-23T08:23:43.297Z,9.28
2023-02-23T08:24:43.293Z,9.22
2023-02-23T08:25:43.288Z,9.21
2023-02-23T08:26:43.289Z,9.22
2023-02-23T08:27:43.282Z,9.22
2023-02-23T08:28:43.281Z,9.22
2023-02-23T08:29:43.273Z,9.21
2023-02-23T08:30:43.428Z,9.22
2023-02-23T08:31:43.403Z,9.25
2023-02-23T08:32:43.261Z,9.23
2023-02-23T08:33:43.296Z,9.11
2023-02-23T08:34:43.261Z,9.23
2023-02-23T08:35:43.252Z,9.21
2023-02-23T08:36:45.651Z,9.23
2023-02-23T08:37:43.240Z,9.22
2023-02-23T08:38:43.242Z,9.19
2023-02-23T08:39:43.681Z,9.22
2023-02-23T08:40:43.268Z,9.21
2023-02-23T08:41:43.227Z,9.21
2023-02-23T08:42:43.223Z,9.22
2023-02-23T08:43:44.136Z,9.22
2023-02-23T08:44:43.227Z,9.21
2023-02-23T08:45:43.207Z,9.14
2023-02-23T08:46:43.256Z,9.22
2023-02-23T08:47:43.202Z,9.21
2023-02-23T08:48:43.198Z,9.19
2023-02-23T08:49:43.194Z,9.19
2023-02-23T08:50:43.197Z,9.19
2023-02-23T08:51:43.186Z,9.21
2023-02-23T08:52:43.176Z,9.19
2023-02-23T08:53:43.175Z,9.19
2023-02-23T08:54:43.178Z,9.23
2023-02-23T08:55:43.166Z,9.14
2023-02-23T08:56:43.164Z,9.19
2023-02-23T08:57:43.160Z,9.22
2023-02-23T08:58:43.156Z,9.14
2023-02-23T08:59:43.151Z,9.16
2023-02-23T09:00:43.147Z,9.14
2023-02-23T09:01:43.258Z,9.03
2023-02-23T09:02:43.162Z,9.02
2023-02-23T09:03:43.130Z,8.92
2023-02-23T09:04:43.156Z,8.94
2023-02-23T09:05:43.157Z,8.92
2023-02-23T09:06:43.121Z,8.87
2023-02-23T09:07:43.113Z,8.76
2023-02-23T09:08:43.125Z,8.85
2023-02-23T09:09:43.121Z,8.91
2023-02-23T09:10:43.110Z,8.78
2023-02-23T09:11:43.101Z,8.82
2023-02-23T09:12:43.106Z,8.78
2023-02-23T09:13:43.101Z,8.79
2023-02-23T09:14:43.087Z,8.87
2023-02-23T09:15:43.129Z,8.79
2023-02-23T09:16:43.077Z,8.78
2023-02-23T09:17:43.081Z,8.71
2023-02-23T09:18:43.103Z,8.71
2023-02-23T09:19:43.065Z,8.82
2023-02-23T09:20:43.064Z,8.70
2023-02-23T09:21:43.055Z,8.76
2023-02-23T09:22:43.057Z,8.66
2023-02-23T09:23:43.049Z,8.70
2023-02-23T09:24:43.071Z,8.67
2023-02-23T09:25:43.041Z,8.82
2023-02-23T09:26:45.581Z,8.85
2023-02-23T09:27:43.041Z,8.73
2023-02-23T09:28:43.031Z,8.84
2023-02-23T09:29:43.032Z,8.74
2023-02-23T09:30:43.046Z,8.74
2023-02-23T09:31:43.209Z,8.84
2023-02-23T09:32:43.048Z,8.94
2023-02-23T09:33:43.018Z,8.92
2023-02-23T09:34:43.030Z,8.88
2023-02-23T09:35:43.004Z,8.89
2023-02-23T09:36:43.001Z,8.94
2023-02-23T09:37:42.995Z,8.92
2023-02-23T09:38:42.991Z,8.94
2023-02-23T09:39:43.000Z,8.88
2023-02-23T09:40:42.980Z,8.91
2023-02-23T09:41:42.974Z,8.91
2023-02-23T09:42:42.967Z,8.97
2023-02-23T09:43:42.969Z,9.00
2023-02-23T09:44:42.960Z,9.04
2023-02-23T09:45:42.960Z,9.04
2023-02-23T09:46:42.974Z,9.10
2023-02-23T09:47:42.963Z,9.18
2023-02-23T09:48:42.948Z,9.10
2023-02-23T09:49:42.941Z,9.11
2023-02-23T09:50:42.959Z,9.10
2023-02-23T09:51:42.934Z,9.19
2023-02-23T09:52:42.933Z,9.28
2023-02-23T09:53:43.396Z,9.21
2023-02-23T09:54:42.922Z,9.25
2023-02-23T09:55:42.918Z,9.25
2023-02-23T09:56:42.920Z,9.21
2023-02-23T09:57:42.934Z,9.26
2023-02-23T09:58:42.909Z,9.23
2023-02-23T09:59:42.904Z,9.21
2023-02-23T10:00:42.896Z,9.06
2023-02-23T10:01:43.027Z,9.10
2023-02-23T10:02:42.890Z,9.03
2023-02-23T10:03:42.893Z,9.06
2023-02-23T10:04:42.916Z,8.99
2023-02-23T10:05:42.880Z,9.00
2023-02-23T10:06:42.891Z,9.02
2023-02-23T10:07:42.874Z,9.04
2023-02-23T10:08:42.876Z,8.99
2023-02-23T10:09:42.865Z,9.00
2023-02-23T10:10:42.869Z,8.99
2023-02-23T10:11:42.856Z,9.06
2023-02-23T10:12:42.865Z,9.04
2023-02-23T10:13:42.847Z,9.08
2023-02-23T10:14:42.843Z,9.04
2023-02-23T10:15:42.864Z,9.02
2023-02-23T10:16:42.833Z,9.00
2023-02-23T10:17:42.835Z,9.02
2023-02-23T10:18:47.086Z,9.04
2023-02-23T10:19:42.829Z,9.08
2023-02-23T10:20:42.820Z,9.04
2023-02-23T10:21:42.820Z,9.11
2023-02-23T10:22:42.886Z,9.16
2023-02-23T10:23:42.814Z,9.18
2023-02-23T10:24:42.814Z,9.23
2023-02-23T10:25:42.801Z,9.18
2023-02-23T10:26:42.793Z,9.16
2023-02-23T10:27:42.797Z,9.26
2023-02-23T10:28:42.787Z,9.10
2023-02-23T10:29:42.784Z,9.16
2023-02-23T10:30:42.818Z,9.23
2023-02-23T10:31:42.936Z,9.19
2023-02-23T10:32:42.854Z,9.16
2023-02-23T10:33:42.768Z,9.11
2023-02-23T10:34:42.765Z,9.23
2023-02-23T10:35:42.763Z,9.06
2023-02-23T10:36:42.754Z,9.06
2023-02-23T10:37:42.751Z,9.04
2023-02-23T10:38:42.791Z,9.10
2023-02-23T10:39:42.763Z,9.08
2023-02-23T10:40:42.736Z,9.11
2023-02-23T10:41:42.736Z,9.00
2023-02-23T10:42:42.732Z,8.95
2023-02-23T10:43:42.727Z,8.99
2023-02-23T10:44:42.721Z,8.88
2023-02-23T10:45:42.721Z,8.94
2023-02-23T10:46:42.847Z,8.95
2023-02-23T10:47:42.710Z,8.92
2023-02-23T10:48:42.941Z,8.82
2023-02-23T10:49:42.714Z,8.88
2023-02-23T10:50:42.696Z,8.88
2023-02-23T10:51:42.693Z,8.79
2023-02-23T10:52:42.705Z,8.84
2023-02-23T10:53:42.684Z,8.79
2023-02-23T10:54:42.706Z,8.84
2023-02-23T10:55:42.676Z,8.89
2023-02-23T10:56:42.672Z,8.87
2023-02-23T10:57:42.775Z,8.89
2023-02-23T10:58:42.666Z,8.82
2023-02-23T10:59:42.664Z,8.87
2023-02-23T11:00:42.654Z,8.79
2023-02-23T11:01:55.457Z,8.85
2023-02-23T11:02:42.670Z,8.82
2023-02-23T11:03:43.207Z,8.71
2023-02-23T11:04:42.681Z,8.78
2023-02-23T11:05:42.642Z,8.81
2023-02-23T11:06:42.636Z,8.85
2023-02-23T11:07:42.626Z,8.85
2023-02-23T11:08:42.619Z,8.82
2023-02-23T11:09:47.527Z,8.70
2023-02-23T11:10:42.637Z,8.76
2023-02-23T11:11:42.607Z,8.78
2023-02-23T11:12:42.607Z,8.81
2023-02-23T11:13:42.604Z,8.79
2023-02-23T11:14:42.721Z,8.74
2023-02-23T11:15:50.405Z,8.76
2023-02-23T11:16:42.660Z,8.71
2023-02-23T11:17:42.582Z,8.73
2023-02-23T11:18:42.576Z,8.74
2023-02-23T11:19:42.577Z,8.69
2023-02-23T11:20:42.565Z,8.70
2023-02-23T11:21:42.564Z,8.71
2023-02-23T11:22:42.555Z,8.76
2023-02-23T11:23:42.559Z,8.82
2023-02-23T11:24:42.557Z,8.78
2023-02-23T11:25:42.546Z,8.82
2023-02-23T11:26:42.681Z,8.82
2023-02-23T11:27:42.538Z,8.87
2023-02-23T11:28:42.541Z,8.79
2023-02-23T11:29:42.527Z,8.82
2023-02-23T11:30:42.568Z,8.81
2023-02-23T11:31:42.627Z,8.67
2023-02-23T11:32:42.662Z,8.64
2023-02-23T11:33:42.512Z,8.66
2023-02-23T11:34:42.512Z,8.61
2023-02-23T11:35:42.508Z,8.61
2023-02-23T11:36:42.497Z,8.61
2023-02-23T11:37:42.495Z,8.66
2023-02-23T11:38:42.485Z,8.64
2023-02-23T11:39:42.490Z,8.67
2023-02-23T11:40:42.478Z,8.64
2023-02-23T11:41:42.481Z,8.63
2023-02-23T11:42:42.505Z,8.63
2023-02-23T11:43:42.475Z,8.63
2023-02-23T11:44:42.465Z,8.70
2023-02-23T11:45:43.846Z,8.67
2023-02-23T11:46:42.509Z,8.64
2023-02-23T11:47:42.453Z,8.64
2023-02-23T11:48:42.644Z,8.67
2023-02-23T11:49:42.459Z,8.70
2023-02-23T11:50:42.441Z,8.81
2023-02-23T11:51:42.436Z,8.94
2023-02-23T11:52:42.429Z,9.06
2023-02-23T11:53:42.424Z,8.97
2023-02-23T11:54:42.420Z,8.99
2023-02-23T11:55:42.422Z,8.91
2023-02-23T11:56:42.413Z,8.92
2023-02-23T11:57:42.410Z,8.94
2023-02-23T11:58:42.473Z,8.91
2023-02-23T11:59:42.416Z,8.95
2023-02-23T12:00:42.398Z,8.92
2023-02-23T12:01:42.403Z,8.97
2023-02-23T12:02:42.457Z,9.00
2023-02-23T12:03:42.400Z,8.99
2023-02-23T12:04:42.410Z,8.88
2023-02-23T12:05:42.376Z,8.87
2023-02-23T12:06:42.407Z,8.91
2023-02-23T12:07:42.391Z,8.94
2023-02-23T12:08:42.364Z,8.91
2023-02-23T12:09:42.358Z,8.92
2023-02-23T12:10:42.450Z,8.91
2023-02-23T12:11:42.353Z,8.91
2023-02-23T12:12:42.364Z,8.85
2023-02-23T12:13:42.344Z,8.89
2023-02-23T12:14:42.414Z,8.92
2023-02-23T12:15:42.336Z,8.94
2023-02-23T12:16:42.364Z,8.79
2023-02-23T12:17:42.329Z,8.81
2023-02-23T12:18:42.364Z,8.91
2023-02-23T12:19:42.320Z,9.03
2023-02-23T12:20:42.315Z,8.92
2023-02-23T12:21:42.317Z,8.87
2023-02-23T12:22:42.311Z,8.88
2023-02-23T12:23:42.301Z,8.91
2023-02-23T12:24:42.295Z,8.92
2023-02-23T12:25:42.294Z,8.92
2023-02-23T12:26:42.287Z,8.84
2023-02-23T12:27:42.284Z,8.87
2023-02-23T12:28:42.286Z,8.82
2023-02-23T12:29:42.276Z,8.74
2023-02-23T12:30:42.317Z,8.74
2023-02-23T12:31:42.348Z,8.63
2023-02-23T12:32:42.258Z,8.58
2023-02-23T12:33:42.255Z,8.66
2023-02-23T12:34:42.256Z,8.61
2023-02-23T12:35:42.250Z,8.52
2023-02-23T12:36:42.241Z,8.51
2023-02-23T12:37:42.234Z,8.55
2023-02-23T12:38:42.228Z,8.58
2023-02-23T12:39:42.227Z,8.53
2023-02-23T12:40:42.234Z,8.58
2023-02-23T12:41:42.215Z,8.53
2023-02-23T12:42:42.212Z,8.56
2023-02-23T12:43:42.211Z,8.56
2023-02-23T12:44:42.201Z,8.58
2023-02-23T12:45:42.220Z,8.61
2023-02-23T12:46:42.211Z,8.69
2023-02-23T12:47:42.190Z,8.61
2023-02-23T12:48:42.441Z,8.58
2023-02-23T12:49:42.195Z,8.69
2023-02-23T12:50:42.174Z,8.58
2023-02-23T12:51:42.205Z,8.67
2023-02-23T12:52:42.166Z,8.56
2023-02-23T12:53:42.169Z,8.52
2023-02-23T12:54:42.157Z,8.51
2023-02-23T12:55:42.189Z,8.56
2023-02-23T12:56:42.154Z,8.56
2023-02-23T12:57:42.149Z,8.55
2023-02-23T12:58:42.137Z,8.51
2023-02-23T12:59:42.136Z,8.56
2023-02-23T13:00:42.129Z,8.56
2023-02-23T13:01:42.207Z,8.56
2023-02-23T13:02:42.166Z,8.56
2023-02-23T13:03:42.119Z,8.49
2023-02-23T13:04:42.119Z,8.48
2023-02-23T13:05:42.110Z,8.42
2023-02-23T13:06:42.109Z,8.48
2023-02-23T13:07:42.105Z,8.37
2023-02-23T13:08:42.095Z,8.33
2023-02-23T13:09:42.096Z,8.41
2023-02-23T13:10:42.088Z,8.48
2023-02-23T13:11:42.179Z,8.49
2023-02-23T13:12:42.163Z,8.53
2023-02-23T13:13:42.090Z,8.45
2023-02-23T13:14:42.071Z,8.48
2023-02-23T13:15:42.071Z,8.52
2023-02-23T13:16:42.094Z,8.52
2023-02-23T13:17:42.060Z,8.46
2023-02-23T13:18:42.075Z,8.49